sensor_id;sensor_type;location;lat;lon;timestamp;P1;durP1;ratioP1;P2;durP2;ratioP2
17991;SDS011;9121;50.926;5.340;2022-08-25T00:01:47;7.22;;;3.50;;
17991;SDS011;9121;50.926;5.340;2022-08-25T00:04:15;8.82;;;3.83;;
17991;SDS011;9121;50.926;5.340;2022-08-25T00:06:44;7.45;;;3.25;;
17991;SDS011;9121;50.926;5.340;2022-08-25T00:09:13;9.05;;;3.47;;
17991;SDS011;9121;50.926;5.340;2022-08-25T00:11:43;5.60;;;3.42;;
17991;SDS011;9121;50.926;5.340;2022-08-25T00:14:14;5.32;;;3.40;;
17991;SDS011;9121;50.926;5.340;2022-08-25T00:16:44;7.20;;;3.70;;
17991;SDS011;9121;50.926;5.340;2022-08-25T00:19:12;16.65;;;4.18;;
17991;SDS011;9121;50.926;5.340;2022-08-25T00:21:43;6.47;;;3.85;;
17991;SDS011;9121;50.926;5.340;2022-08-25T00:24:13;11.80;;;3.97;;
17991;SDS011;9121;50.926;5.340;2022-08-25T00:26:43;9.05;;;3.47;;
17991;SDS011;9121;50.926;5.340;2022-08-25T00:29:12;7.63;;;3.50;;
17991;SDS011;9121;50.926;5.340;2022-08-25T00:31:40;10.15;;;3.63;;
17991;SDS011;9121;50.926;5.340;2022-08-25T00:34:08;9.55;;;4.18;;
17991;SDS011;9121;50.926;5.340;2022-08-25T00:36:37;8.05;;;4.07;;
17991;SDS011;9121;50.926;5.340;2022-08-25T00:39:04;10.07;;;4.00;;
17991;SDS011;9121;50.926;5.340;2022-08-25T00:41:35;6.38;;;3.80;;
17991;SDS011;9121;50.926;5.340;2022-08-25T00:44:04;7.65;;;3.70;;
17991;SDS011;9121;50.926;5.340;2022-08-25T00:46:33;6.82;;;3.47;;
17991;SDS011;9121;50.926;5.340;2022-08-25T00:49:03;7.10;;;3.45;;
17991;SDS011;9121;50.926;5.340;2022-08-25T00:51:34;8.23;;;3.42;;
17991;SDS011;9121;50.926;5.340;2022-08-25T00:54:09;7.90;;;3.80;;
17991;SDS011;9121;50.926;5.340;2022-08-25T00:56:43;7.10;;;3.53;;
17991;SDS011;9121;50.926;5.340;2022-08-25T00:59:11;8.60;;;4.00;;
17991;SDS011;9121;50.926;5.340;2022-08-25T01:01:39;11.15;;;4.13;;
17991;SDS011;9121;50.926;5.340;2022-08-25T01:04:06;10.88;;;3.70;;
17991;SDS011;9121;50.926;5.340;2022-08-25T01:06:34;9.02;;;4.20;;
17991;SDS011;9121;50.926;5.340;2022-08-25T01:09:04;6.90;;;4.00;;
17991;SDS011;9121;50.926;5.340;2022-08-25T01:11:32;8.85;;;3.80;;
17991;SDS011;9121;50.926;5.340;2022-08-25T01:14:01;10.43;;;4.00;;
17991;SDS011;9121;50.926;5.340;2022-08-25T01:16:31;7.78;;;4.07;;
17991;SDS011;9121;50.926;5.340;2022-08-25T01:18:59;9.63;;;3.85;;
17991;SDS011;9121;50.926;5.340;2022-08-25T01:21:28;12.25;;;4.30;;
17991;SDS011;9121;50.926;5.340;2022-08-25T01:23:57;8.98;;;4.53;;
17991;SDS011;9121;50.926;5.340;2022-08-25T01:26:27;8.73;;;4.10;;
17991;SDS011;9121;50.926;5.340;2022-08-25T01:28:55;8.05;;;4.28;;
17991;SDS011;9121;50.926;5.340;2022-08-25T01:31:40;10.75;;;4.53;;
17991;SDS011;9121;50.926;5.340;2022-08-25T01:34:08;9.07;;;4.75;;
17991;SDS011;9121;50.926;5.340;2022-08-25T01:36:39;11.45;;;3.92;;
17991;SDS011;9121;50.926;5.340;2022-08-25T01:39:07;14.15;;;4.45;;
17991;SDS011;9121;50.926;5.340;2022-08-25T01:41:35;6.68;;;4.20;;
17991;SDS011;9121;50.926;5.340;2022-08-25T01:44:10;9.32;;;4.38;;
17991;SDS011;9121;50.926;5.340;2022-08-25T01:46:37;8.98;;;4.90;;
17991;SDS011;9121;50.926;5.340;2022-08-25T01:49:04;13.15;;;4.55;;
17991;SDS011;9121;50.926;5.340;2022-08-25T01:51:33;6.82;;;4.28;;
17991;SDS011;9121;50.926;5.340;2022-08-25T01:54:08;9.20;;;4.50;;
17991;SDS011;9121;50.926;5.340;2022-08-25T01:56:35;14.57;;;4.80;;
17991;SDS011;9121;50.926;5.340;2022-08-25T01:59:02;12.90;;;4.43;;
17991;SDS011;9121;50.926;5.340;2022-08-25T02:01:29;9.60;;;4.85;;
17991;SDS011;9121;50.926;5.340;2022-08-25T02:03:56;9.38;;;4.63;;
17991;SDS011;9121;50.926;5.340;2022-08-25T02:06:24;11.43;;;4.70;;
17991;SDS011;9121;50.926;5.340;2022-08-25T02:08:54;7.75;;;4.75;;
17991;SDS011;9121;50.926;5.340;2022-08-25T02:11:26;8.88;;;4.80;;
17991;SDS011;9121;50.926;5.340;2022-08-25T02:13:54;8.18;;;4.78;;
17991;SDS011;9121;50.926;5.340;2022-08-25T02:16:23;16.05;;;4.70;;
17991;SDS011;9121;50.926;5.340;2022-08-25T02:18:53;13.05;;;4.68;;
17991;SDS011;9121;50.926;5.340;2022-08-25T02:21:21;11.45;;;4.55;;
17991;SDS011;9121;50.926;5.340;2022-08-25T02:23:48;12.25;;;5.47;;
17991;SDS011;9121;50.926;5.340;2022-08-25T02:26:15;10.60;;;5.40;;
17991;SDS011;9121;50.926;5.340;2022-08-25T02:28:45;15.25;;;5.15;;
17991;SDS011;9121;50.926;5.340;2022-08-25T02:31:13;8.48;;;5.00;;
17991;SDS011;9121;50.926;5.340;2022-08-25T02:33:41;9.93;;;4.72;;
17991;SDS011;9121;50.926;5.340;2022-08-25T02:36:09;10.00;;;5.40;;
17991;SDS011;9121;50.926;5.340;2022-08-25T02:38:36;9.80;;;4.93;;
17991;SDS011;9121;50.926;5.340;2022-08-25T02:41:07;12.82;;;4.60;;
17991;SDS011;9121;50.926;5.340;2022-08-25T02:43:37;8.15;;;4.93;;
17991;SDS011;9121;50.926;5.340;2022-08-25T02:46:09;15.02;;;5.38;;
17991;SDS011;9121;50.926;5.340;2022-08-25T02:48:36;8.32;;;4.40;;
17991;SDS011;9121;50.926;5.340;2022-08-25T02:51:05;13.68;;;5.00;;
17991;SDS011;9121;50.926;5.340;2022-08-25T02:53:33;11.52;;;4.88;;
17991;SDS011;9121;50.926;5.340;2022-08-25T02:56:02;12.48;;;4.68;;
17991;SDS011;9121;50.926;5.340;2022-08-25T02:58:29;7.40;;;5.00;;
17991;SDS011;9121;50.926;5.340;2022-08-25T03:00:56;28.20;;;6.40;;
17991;SDS011;9121;50.926;5.340;2022-08-25T03:03:24;19.25;;;5.50;;
17991;SDS011;9121;50.926;5.340;2022-08-25T03:05:51;9.35;;;4.90;;
17991;SDS011;9121;50.926;5.340;2022-08-25T03:08:21;9.70;;;5.13;;
17991;SDS011;9121;50.926;5.340;2022-08-25T03:10:48;14.77;;;5.55;;
17991;SDS011;9121;50.926;5.340;2022-08-25T03:13:15;14.93;;;5.63;;
17991;SDS011;9121;50.926;5.340;2022-08-25T03:15:43;10.90;;;4.78;;
17991;SDS011;9121;50.926;5.340;2022-08-25T03:18:10;10.57;;;5.50;;
17991;SDS011;9121;50.926;5.340;2022-08-25T03:20:38;8.32;;;5.03;;
17991;SDS011;9121;50.926;5.340;2022-08-25T03:23:06;8.23;;;4.78;;
17991;SDS011;9121;50.926;5.340;2022-08-25T03:25:33;9.20;;;5.00;;
17991;SDS011;9121;50.926;5.340;2022-08-25T03:28:17;11.20;;;5.07;;
17991;SDS011;9121;50.926;5.340;2022-08-25T03:30:44;12.02;;;5.70;;
17991;SDS011;9121;50.926;5.340;2022-08-25T03:33:11;12.23;;;5.15;;
17991;SDS011;9121;50.926;5.340;2022-08-25T03:35:39;14.40;;;5.72;;
17991;SDS011;9121;50.926;5.340;2022-08-25T03:38:06;14.20;;;6.47;;
17991;SDS011;9121;50.926;5.340;2022-08-25T03:40:33;13.00;;;6.43;;
17991;SDS011;9121;50.926;5.340;2022-08-25T03:43:00;11.07;;;5.88;;
17991;SDS011;9121;50.926;5.340;2022-08-25T03:45:27;11.82;;;6.72;;
17991;SDS011;9121;50.926;5.340;2022-08-25T03:47:55;13.95;;;6.18;;
17991;SDS011;9121;50.926;5.340;2022-08-25T03:50:22;10.27;;;5.50;;
17991;SDS011;9121;50.926;5.340;2022-08-25T03:52:51;65.82;;;9.13;;
17991;SDS011;9121;50.926;5.340;2022-08-25T03:55:19;10.73;;;5.88;;
17991;SDS011;9121;50.926;5.340;2022-08-25T03:57:48;11.18;;;6.05;;
17991;SDS011;9121;50.926;5.340;2022-08-25T04:00:15;13.13;;;6.30;;
17991;SDS011;9121;50.926;5.340;2022-08-25T04:02:42;21.83;;;7.05;;
17991;SDS011;9121;50.926;5.340;2022-08-25T04:05:09;13.55;;;5.75;;
17991;SDS011;9121;50.926;5.340;2022-08-25T04:07:37;20.52;;;7.03;;
17991;SDS011;9121;50.926;5.340;2022-08-25T04:10:06;15.77;;;6.18;;
17991;SDS011;9121;50.926;5.340;2022-08-25T04:12:34;23.92;;;6.50;;
17991;SDS011;9121;50.926;5.340;2022-08-25T04:15:02;13.95;;;6.38;;
17991;SDS011;9121;50.926;5.340;2022-08-25T04:17:29;17.30;;;6.40;;
17991;SDS011;9121;50.926;5.340;2022-08-25T04:19:56;10.23;;;5.95;;
17991;SDS011;9121;50.926;5.340;2022-08-25T04:22:23;19.73;;;7.00;;
17991;SDS011;9121;50.926;5.340;2022-08-25T04:24:50;24.10;;;7.15;;
17991;SDS011;9121;50.926;5.340;2022-08-25T04:27:18;23.20;;;7.20;;
17991;SDS011;9121;50.926;5.340;2022-08-25T04:29:45;11.43;;;6.45;;
17991;SDS011;9121;50.926;5.340;2022-08-25T04:32:12;15.45;;;6.15;;
17991;SDS011;9121;50.926;5.340;2022-08-25T04:34:39;15.15;;;6.55;;
17991;SDS011;9121;50.926;5.340;2022-08-25T04:37:07;12.60;;;6.63;;
17991;SDS011;9121;50.926;5.340;2022-08-25T04:39:35;11.98;;;6.72;;
17991;SDS011;9121;50.926;5.340;2022-08-25T04:42:02;13.05;;;6.55;;
17991;SDS011;9121;50.926;5.340;2022-08-25T04:44:31;11.57;;;5.93;;
17991;SDS011;9121;50.926;5.340;2022-08-25T04:46:58;55.65;;;7.85;;
17991;SDS011;9121;50.926;5.340;2022-08-25T04:49:26;31.05;;;7.93;;
17991;SDS011;9121;50.926;5.340;2022-08-25T04:51:53;14.82;;;6.63;;
17991;SDS011;9121;50.926;5.340;2022-08-25T04:54:21;9.48;;;6.10;;
17991;SDS011;9121;50.926;5.340;2022-08-25T04:56:49;39.97;;;7.82;;
17991;SDS011;9121;50.926;5.340;2022-08-25T04:59:17;9.50;;;6.40;;
17991;SDS011;9121;50.926;5.340;2022-08-25T05:01:46;19.23;;;6.60;;
17991;SDS011;9121;50.926;5.340;2022-08-25T05:04:13;14.38;;;6.47;;
17991;SDS011;9121;50.926;5.340;2022-08-25T05:06:41;14.75;;;7.40;;
17991;SDS011;9121;50.926;5.340;2022-08-25T05:09:09;32.88;;;7.47;;
17991;SDS011;9121;50.926;5.340;2022-08-25T05:11:36;31.80;;;7.68;;
17991;SDS011;9121;50.926;5.340;2022-08-25T05:14:03;16.63;;;6.95;;
17991;SDS011;9121;50.926;5.340;2022-08-25T05:16:35;24.05;;;7.68;;
17991;SDS011;9121;50.926;5.340;2022-08-25T05:19:03;23.30;;;7.00;;
17991;SDS011;9121;50.926;5.340;2022-08-25T05:21:30;13.10;;;7.18;;
17991;SDS011;9121;50.926;5.340;2022-08-25T05:23:57;24.60;;;7.40;;
17991;SDS011;9121;50.926;5.340;2022-08-25T05:26:26;24.50;;;6.45;;
17991;SDS011;9121;50.926;5.340;2022-08-25T05:28:56;18.88;;;7.00;;
17991;SDS011;9121;50.926;5.340;2022-08-25T05:31:25;23.50;;;7.20;;
17991;SDS011;9121;50.926;5.340;2022-08-25T05:33:53;31.90;;;6.97;;
17991;SDS011;9121;50.926;5.340;2022-08-25T05:36:22;49.03;;;8.82;;
17991;SDS011;9121;50.926;5.340;2022-08-25T05:38:51;17.17;;;6.68;;
17991;SDS011;9121;50.926;5.340;2022-08-25T05:41:20;15.68;;;6.15;;
17991;SDS011;9121;50.926;5.340;2022-08-25T05:43:51;18.50;;;6.20;;
17991;SDS011;9121;50.926;5.340;2022-08-25T05:46:18;15.52;;;5.82;;
17991;SDS011;9121;50.926;5.340;2022-08-25T05:48:46;20.48;;;5.97;;
17991;SDS011;9121;50.926;5.340;2022-08-25T05:51:14;19.50;;;6.25;;
17991;SDS011;9121;50.926;5.340;2022-08-25T05:53:43;27.75;;;7.75;;
17991;SDS011;9121;50.926;5.340;2022-08-25T05:56:11;20.40;;;5.65;;
17991;SDS011;9121;50.926;5.340;2022-08-25T05:58:39;15.02;;;5.90;;
17991;SDS011;9121;50.926;5.340;2022-08-25T06:01:06;103.05;;;11.35;;
17991;SDS011;9121;50.926;5.340;2022-08-25T06:03:51;24.50;;;6.15;;
17991;SDS011;9121;50.926;5.340;2022-08-25T06:06:18;41.47;;;6.47;;
17991;SDS011;9121;50.926;5.340;2022-08-25T06:08:47;33.90;;;6.85;;
17991;SDS011;9121;50.926;5.340;2022-08-25T06:11:14;20.52;;;5.45;;
17991;SDS011;9121;50.926;5.340;2022-08-25T06:13:42;36.85;;;6.57;;
17991;SDS011;9121;50.926;5.340;2022-08-25T06:16:09;28.80;;;5.75;;
17991;SDS011;9121;50.926;5.340;2022-08-25T06:18:36;10.50;;;5.40;;
17991;SDS011;9121;50.926;5.340;2022-08-25T06:21:07;18.13;;;5.43;;
17991;SDS011;9121;50.926;5.340;2022-08-25T06:23:36;18.90;;;6.15;;
17991;SDS011;9121;50.926;5.340;2022-08-25T06:26:06;26.48;;;5.85;;
17991;SDS011;9121;50.926;5.340;2022-08-25T06:28:35;34.60;;;6.05;;
17991;SDS011;9121;50.926;5.340;2022-08-25T06:31:03;22.95;;;5.93;;
17991;SDS011;9121;50.926;5.340;2022-08-25T06:33:30;15.85;;;5.55;;
17991;SDS011;9121;50.926;5.340;2022-08-25T06:35:57;20.00;;;5.93;;
17991;SDS011;9121;50.926;5.340;2022-08-25T06:38:24;16.55;;;5.38;;
17991;SDS011;9121;50.926;5.340;2022-08-25T06:40:52;13.52;;;5.70;;
17991;SDS011;9121;50.926;5.340;2022-08-25T06:43:23;25.73;;;5.88;;
17991;SDS011;9121;50.926;5.340;2022-08-25T06:45:50;21.35;;;5.57;;
17991;SDS011;9121;50.926;5.340;2022-08-25T06:48:17;17.15;;;5.22;;
17991;SDS011;9121;50.926;5.340;2022-08-25T06:50:44;25.63;;;5.60;;
17991;SDS011;9121;50.926;5.340;2022-08-25T06:53:11;16.98;;;5.25;;
17991;SDS011;9121;50.926;5.340;2022-08-25T06:55:38;33.83;;;5.55;;
17991;SDS011;9121;50.926;5.340;2022-08-25T06:58:05;18.77;;;5.72;;
17991;SDS011;9121;50.926;5.340;2022-08-25T07:00:35;24.83;;;5.40;;
17991;SDS011;9121;50.926;5.340;2022-08-25T07:03:02;20.27;;;4.97;;
17991;SDS011;9121;50.926;5.340;2022-08-25T07:05:30;27.27;;;5.65;;
17991;SDS011;9121;50.926;5.340;2022-08-25T07:07:57;15.73;;;4.35;;
17991;SDS011;9121;50.926;5.340;2022-08-25T07:10:23;29.15;;;5.53;;
17991;SDS011;9121;50.926;5.340;2022-08-25T07:12:51;13.77;;;4.80;;
17991;SDS011;9121;50.926;5.340;2022-08-25T07:15:18;47.45;;;6.78;;
17991;SDS011;9121;50.926;5.340;2022-08-25T07:17:46;14.85;;;3.75;;
17991;SDS011;9121;50.926;5.340;2022-08-25T07:20:14;8.10;;;3.55;;
17991;SDS011;9121;50.926;5.340;2022-08-25T07:22:42;10.02;;;4.80;;
17991;SDS011;9121;50.926;5.340;2022-08-25T07:25:09;14.85;;;4.68;;
17991;SDS011;9121;50.926;5.340;2022-08-25T07:27:36;14.23;;;3.92;;
17991;SDS011;9121;50.926;5.340;2022-08-25T07:30:06;19.67;;;3.88;;
17991;SDS011;9121;50.926;5.340;2022-08-25T07:32:34;29.08;;;4.78;;
17991;SDS011;9121;50.926;5.340;2022-08-25T07:35:02;13.38;;;4.35;;
17991;SDS011;9121;50.926;5.340;2022-08-25T07:37:41;32.45;;;4.55;;
17991;SDS011;9121;50.926;5.340;2022-08-25T07:40:10;13.27;;;3.80;;
17991;SDS011;9121;50.926;5.340;2022-08-25T07:42:39;17.80;;;3.97;;
17991;SDS011;9121;50.926;5.340;2022-08-25T07:45:07;21.83;;;4.00;;
17991;SDS011;9121;50.926;5.340;2022-08-25T07:47:35;11.77;;;3.95;;
17991;SDS011;9121;50.926;5.340;2022-08-25T07:50:04;23.52;;;4.45;;
17991;SDS011;9121;50.926;5.340;2022-08-25T07:52:31;14.73;;;3.63;;
17991;SDS011;9121;50.926;5.340;2022-08-25T07:54:58;16.75;;;3.70;;
17991;SDS011;9121;50.926;5.340;2022-08-25T07:57:26;25.83;;;4.15;;
17991;SDS011;9121;50.926;5.340;2022-08-25T07:59:53;37.03;;;4.28;;
17991;SDS011;9121;50.926;5.340;2022-08-25T08:02:22;22.45;;;3.90;;
17991;SDS011;9121;50.926;5.340;2022-08-25T08:04:50;19.30;;;3.70;;
17991;SDS011;9121;50.926;5.340;2022-08-25T08:07:21;31.48;;;4.85;;
17991;SDS011;9121;50.926;5.340;2022-08-25T08:09:51;38.63;;;5.32;;
17991;SDS011;9121;50.926;5.340;2022-08-25T08:12:18;24.73;;;4.10;;
17991;SDS011;9121;50.926;5.340;2022-08-25T08:14:45;7.35;;;3.20;;
17991;SDS011;9121;50.926;5.340;2022-08-25T08:17:12;22.30;;;5.30;;
17991;SDS011;9121;50.926;5.340;2022-08-25T08:19:40;25.13;;;3.95;;
17991;SDS011;9121;50.926;5.340;2022-08-25T08:22:07;10.27;;;3.78;;
17991;SDS011;9121;50.926;5.340;2022-08-25T08:24:36;11.48;;;3.53;;
17991;SDS011;9121;50.926;5.340;2022-08-25T08:27:04;16.92;;;3.72;;
17991;SDS011;9121;50.926;5.340;2022-08-25T08:29:32;9.25;;;2.97;;
17991;SDS011;9121;50.926;5.340;2022-08-25T08:32:00;9.02;;;3.42;;
17991;SDS011;9121;50.926;5.340;2022-08-25T08:34:27;12.30;;;2.75;;
17991;SDS011;9121;50.926;5.340;2022-08-25T08:36:54;10.85;;;3.15;;
17991;SDS011;9121;50.926;5.340;2022-08-25T08:39:21;14.80;;;3.03;;
17991;SDS011;9121;50.926;5.340;2022-08-25T08:41:52;7.30;;;3.15;;
17991;SDS011;9121;50.926;5.340;2022-08-25T08:47:49;7.68;;;2.90;;
17991;SDS011;9121;50.926;5.340;2022-08-25T08:50:28;9.63;;;2.67;;
17991;SDS011;9121;50.926;5.340;2022-08-25T08:53:01;8.10;;;3.05;;
17991;SDS011;9121;50.926;5.340;2022-08-25T08:55:33;7.60;;;2.88;;
17991;SDS011;9121;50.926;5.340;2022-08-25T08:58:06;7.95;;;2.65;;
17991;SDS011;9121;50.926;5.340;2022-08-25T09:00:38;21.85;;;4.03;;
17991;SDS011;9121;50.926;5.340;2022-08-25T09:03:10;7.00;;;3.28;;
17991;SDS011;9121;50.926;5.340;2022-08-25T09:05:42;8.85;;;2.85;;
17991;SDS011;9121;50.926;5.340;2022-08-25T09:08:12;5.13;;;2.97;;
17991;SDS011;9121;50.926;5.340;2022-08-25T09:10:44;7.60;;;2.88;;
17991;SDS011;9121;50.926;5.340;2022-08-25T09:13:23;6.00;;;2.70;;
17991;SDS011;9121;50.926;5.340;2022-08-25T09:16:02;7.90;;;3.03;;
17991;SDS011;9121;50.926;5.340;2022-08-25T09:18:54;8.00;;;2.83;;
17991;SDS011;9121;50.926;5.340;2022-08-25T09:21:29;24.80;;;3.42;;
17991;SDS011;9121;50.926;5.340;2022-08-25T09:24:09;5.97;;;2.95;;
17991;SDS011;9121;50.926;5.340;2022-08-25T09:26:51;7.15;;;2.97;;
17991;SDS011;9121;50.926;5.340;2022-08-25T09:29:29;9.73;;;3.10;;
17991;SDS011;9121;50.926;5.340;2022-08-25T09:32:06;9.10;;;3.05;;
17991;SDS011;9121;50.926;5.340;2022-08-25T09:34:33;7.10;;;2.97;;
17991;SDS011;9121;50.926;5.340;2022-08-25T09:37:01;10.68;;;3.30;;
17991;SDS011;9121;50.926;5.340;2022-08-25T09:39:27;6.10;;;2.90;;
17991;SDS011;9121;50.926;5.340;2022-08-25T09:41:55;10.02;;;2.85;;
17991;SDS011;9121;50.926;5.340;2022-08-25T09:44:24;8.27;;;2.72;;
17991;SDS011;9121;50.926;5.340;2022-08-25T09:46:56;8.70;;;2.88;;
17991;SDS011;9121;50.926;5.340;2022-08-25T09:49:35;9.70;;;3.30;;
17991;SDS011;9121;50.926;5.340;2022-08-25T09:54:57;9.65;;;3.40;;
17991;SDS011;9121;50.926;5.340;2022-08-25T09:57:28;31.45;;;5.32;;
17991;SDS011;9121;50.926;5.340;2022-08-25T10:00:08;5.75;;;3.13;;
17991;SDS011;9121;50.926;5.340;2022-08-25T10:02:41;18.05;;;4.70;;
17991;SDS011;9121;50.926;5.340;2022-08-25T10:05:19;8.20;;;5.13;;
17991;SDS011;9121;50.926;5.340;2022-08-25T10:07:49;12.13;;;5.63;;
17991;SDS011;9121;50.926;5.340;2022-08-25T10:10:26;5.55;;;5.05;;
17991;SDS011;9121;50.926;5.340;2022-08-25T10:12:54;9.63;;;5.50;;
17991;SDS011;9121;50.926;5.340;2022-08-25T10:15:26;7.93;;;5.82;;
17991;SDS011;9121;50.926;5.340;2022-08-25T10:17:57;8.52;;;6.47;;
17991;SDS011;9121;50.926;5.340;2022-08-25T10:20:59;10.98;;;6.40;;
17991;SDS011;9121;50.926;5.340;2022-08-25T10:23:32;7.97;;;7.20;;
17991;SDS011;9121;50.926;5.340;2022-08-25T10:26:02;8.88;;;7.50;;
17991;SDS011;9121;50.926;5.340;2022-08-25T10:28:36;9.95;;;7.20;;
17991;SDS011;9121;50.926;5.340;2022-08-25T10:31:11;13.00;;;6.85;;
17991;SDS011;9121;50.926;5.340;2022-08-25T10:33:48;13.40;;;7.70;;
17991;SDS011;9121;50.926;5.340;2022-08-25T10:36:35;30.02;;;8.15;;
17991;SDS011;9121;50.926;5.340;2022-08-25T10:39:16;7.70;;;6.50;;
17991;SDS011;9121;50.926;5.340;2022-08-25T10:41:51;6.20;;;2.58;;
17991;SDS011;9121;50.926;5.340;2022-08-25T10:44:29;13.25;;;6.35;;
17991;SDS011;9121;50.926;5.340;2022-08-25T10:50:12;8.52;;;2.63;;
17991;SDS011;9121;50.926;5.340;2022-08-25T10:53:02;7.70;;;2.45;;
17991;SDS011;9121;50.926;5.340;2022-08-25T10:55:51;6.53;;;2.50;;
17991;SDS011;9121;50.926;5.340;2022-08-25T10:58:34;8.23;;;2.88;;
17991;SDS011;9121;50.926;5.340;2022-08-25T11:01:14;6.35;;;2.55;;
17991;SDS011;9121;50.926;5.340;2022-08-25T11:03:51;7.75;;;2.60;;
17991;SDS011;9121;50.926;5.340;2022-08-25T11:06:26;7.53;;;2.30;;
17991;SDS011;9121;50.926;5.340;2022-08-25T11:09:02;8.48;;;2.38;;
17991;SDS011;9121;50.926;5.340;2022-08-25T11:11:34;9.05;;;2.95;;
17991;SDS011;9121;50.926;5.340;2022-08-25T11:14:04;8.00;;;2.42;;
17991;SDS011;9121;50.926;5.340;2022-08-25T11:16:35;6.78;;;2.30;;
17991;SDS011;9121;50.926;5.340;2022-08-25T11:19:17;4.53;;;2.63;;
17991;SDS011;9121;50.926;5.340;2022-08-25T11:21:51;20.60;;;3.35;;
17991;SDS011;9121;50.926;5.340;2022-08-25T11:24:33;11.07;;;2.97;;
17991;SDS011;9121;50.926;5.340;2022-08-25T11:27:08;9.63;;;2.85;;
17991;SDS011;9121;50.926;5.340;2022-08-25T11:29:40;8.90;;;2.72;;
17991;SDS011;9121;50.926;5.340;2022-08-25T11:32:14;6.07;;;2.50;;
17991;SDS011;9121;50.926;5.340;2022-08-25T11:34:47;7.47;;;2.50;;
17991;SDS011;9121;50.926;5.340;2022-08-25T11:37:18;12.98;;;2.85;;
17991;SDS011;9121;50.926;5.340;2022-08-25T11:39:56;8.43;;;3.00;;
17991;SDS011;9121;50.926;5.340;2022-08-25T11:42:35;15.20;;;2.80;;
17991;SDS011;9121;50.926;5.340;2022-08-25T11:45:15;7.65;;;2.80;;
17991;SDS011;9121;50.926;5.340;2022-08-25T11:47:58;11.93;;;2.97;;
17991;SDS011;9121;50.926;5.340;2022-08-25T11:50:53;10.77;;;2.75;;
17991;SDS011;9121;50.926;5.340;2022-08-25T11:53:25;8.85;;;2.85;;
17991;SDS011;9121;50.926;5.340;2022-08-25T11:55:55;6.45;;;3.00;;
17991;SDS011;9121;50.926;5.340;2022-08-25T11:58:36;7.25;;;2.80;;
17991;SDS011;9121;50.926;5.340;2022-08-25T12:04:13;11.60;;;3.47;;
17991;SDS011;9121;50.926;5.340;2022-08-25T12:15:23;11.27;;;3.50;;
17991;SDS011;9121;50.926;5.340;2022-08-25T12:23:39;45.13;;;5.65;;
17991;SDS011;9121;50.926;5.340;2022-08-25T12:26:11;23.95;;;4.22;;
17991;SDS011;9121;50.926;5.340;2022-08-25T12:28:50;12.95;;;3.42;;
17991;SDS011;9121;50.926;5.340;2022-08-25T12:31:48;17.08;;;3.60;;
17991;SDS011;9121;50.926;5.340;2022-08-25T12:34:29;9.43;;;2.92;;
17991;SDS011;9121;50.926;5.340;2022-08-25T12:37:11;7.93;;;3.38;;
17991;SDS011;9121;50.926;5.340;2022-08-25T12:39:43;32.17;;;4.10;;
17991;SDS011;9121;50.926;5.340;2022-08-25T12:42:23;8.98;;;3.03;;
17991;SDS011;9121;50.926;5.340;2022-08-25T12:45:12;12.73;;;3.05;;
17991;SDS011;9121;50.926;5.340;2022-08-25T12:47:55;5.85;;;2.80;;
17991;SDS011;9121;50.926;5.340;2022-08-25T12:51:00;16.05;;;3.65;;
17991;SDS011;9121;50.926;5.340;2022-08-25T12:53:31;10.43;;;3.30;;
17991;SDS011;9121;50.926;5.340;2022-08-25T12:56:02;5.10;;;3.05;;
17991;SDS011;9121;50.926;5.340;2022-08-25T12:58:34;10.23;;;2.78;;
17991;SDS011;9121;50.926;5.340;2022-08-25T13:01:13;11.43;;;3.05;;
17991;SDS011;9121;50.926;5.340;2022-08-25T13:06:56;11.82;;;3.00;;
17991;SDS011;9121;50.926;5.340;2022-08-25T13:12:46;9.30;;;2.80;;
17991;SDS011;9121;50.926;5.340;2022-08-25T13:15:26;13.38;;;2.85;;
17991;SDS011;9121;50.926;5.340;2022-08-25T13:18:19;5.13;;;2.20;;
17991;SDS011;9121;50.926;5.340;2022-08-25T13:20:49;13.02;;;3.20;;
17991;SDS011;9121;50.926;5.340;2022-08-25T13:23:21;7.28;;;2.90;;
17991;SDS011;9121;50.926;5.340;2022-08-25T13:25:52;9.85;;;2.33;;
17991;SDS011;9121;50.926;5.340;2022-08-25T13:28:25;36.83;;;3.90;;
17991;SDS011;9121;50.926;5.340;2022-08-25T13:30:59;11.52;;;2.70;;
17991;SDS011;9121;50.926;5.340;2022-08-25T13:33:30;9.05;;;2.53;;
17991;SDS011;9121;50.926;5.340;2022-08-25T13:35:58;19.92;;;3.47;;
17991;SDS011;9121;50.926;5.340;2022-08-25T13:38:44;8.10;;;2.70;;
17991;SDS011;9121;50.926;5.340;2022-08-25T13:41:16;6.50;;;2.92;;
17991;SDS011;9121;50.926;5.340;2022-08-25T13:43:50;26.27;;;3.45;;
17991;SDS011;9121;50.926;5.340;2022-08-25T13:46:20;8.60;;;2.72;;
17991;SDS011;9121;50.926;5.340;2022-08-25T13:48:48;9.15;;;2.90;;
17991;SDS011;9121;50.926;5.340;2022-08-25T13:51:17;6.50;;;2.47;;
17991;SDS011;9121;50.926;5.340;2022-08-25T13:53:51;3.33;;;2.40;;
17991;SDS011;9121;50.926;5.340;2022-08-25T13:56:24;4.72;;;2.70;;
17991;SDS011;9121;50.926;5.340;2022-08-25T13:58:54;8.55;;;2.63;;
17991;SDS011;9121;50.926;5.340;2022-08-25T14:01:25;6.72;;;2.78;;
17991;SDS011;9121;50.926;5.340;2022-08-25T14:03:55;4.65;;;2.53;;
17991;SDS011;9121;50.926;5.340;2022-08-25T14:06:42;7.47;;;2.95;;
17991;SDS011;9121;50.926;5.340;2022-08-25T14:09:13;10.57;;;3.22;;
17991;SDS011;9121;50.926;5.340;2022-08-25T14:11:43;9.48;;;3.20;;
17991;SDS011;9121;50.926;5.340;2022-08-25T14:14:13;21.48;;;3.72;;
17991;SDS011;9121;50.926;5.340;2022-08-25T14:17:00;7.68;;;3.00;;
17991;SDS011;9121;50.926;5.340;2022-08-25T14:19:30;47.22;;;4.68;;
17991;SDS011;9121;50.926;5.340;2022-08-25T14:21:59;7.88;;;2.85;;
17991;SDS011;9121;50.926;5.340;2022-08-25T14:24:27;5.50;;;2.50;;
17991;SDS011;9121;50.926;5.340;2022-08-25T14:26:58;11.73;;;3.00;;
17991;SDS011;9121;50.926;5.340;2022-08-25T14:29:26;11.98;;;3.13;;
17991;SDS011;9121;50.926;5.340;2022-08-25T14:31:54;6.65;;;2.30;;
17991;SDS011;9121;50.926;5.340;2022-08-25T14:34:23;15.52;;;3.20;;
17991;SDS011;9121;50.926;5.340;2022-08-25T14:36:52;11.93;;;2.80;;
17991;SDS011;9121;50.926;5.340;2022-08-25T14:39:19;9.38;;;2.55;;
17991;SDS011;9121;50.926;5.340;2022-08-25T14:41:47;6.80;;;2.60;;
17991;SDS011;9121;50.926;5.340;2022-08-25T14:44:15;5.85;;;2.60;;
17991;SDS011;9121;50.926;5.340;2022-08-25T14:46:44;3.90;;;2.40;;
17991;SDS011;9121;50.926;5.340;2022-08-25T14:49:19;7.57;;;2.95;;
17991;SDS011;9121;50.926;5.340;2022-08-25T14:51:49;7.07;;;2.40;;
17991;SDS011;9121;50.926;5.340;2022-08-25T14:54:16;14.88;;;2.63;;
17991;SDS011;9121;50.926;5.340;2022-08-25T14:56:45;6.60;;;2.47;;
17991;SDS011;9121;50.926;5.340;2022-08-25T14:59:13;13.25;;;3.03;;
17991;SDS011;9121;50.926;5.340;2022-08-25T15:01:41;2.95;;;2.22;;
17991;SDS011;9121;50.926;5.340;2022-08-25T15:04:09;9.13;;;2.50;;
17991;SDS011;9121;50.926;5.340;2022-08-25T15:06:39;3.75;;;2.17;;
17991;SDS011;9121;50.926;5.340;2022-08-25T15:09:09;17.23;;;3.03;;
17991;SDS011;9121;50.926;5.340;2022-08-25T15:11:37;14.80;;;2.72;;
17991;SDS011;9121;50.926;5.340;2022-08-25T15:14:06;4.70;;;2.38;;
17991;SDS011;9121;50.926;5.340;2022-08-25T15:16:35;11.23;;;3.45;;
17991;SDS011;9121;50.926;5.340;2022-08-25T15:19:05;4.38;;;2.50;;
17991;SDS011;9121;50.926;5.340;2022-08-25T15:21:34;12.95;;;3.22;;
17991;SDS011;9121;50.926;5.340;2022-08-25T15:24:02;5.53;;;2.20;;
17991;SDS011;9121;50.926;5.340;2022-08-25T15:26:31;8.40;;;2.80;;
17991;SDS011;9121;50.926;5.340;2022-08-25T15:28:59;7.75;;;2.67;;
17991;SDS011;9121;50.926;5.340;2022-08-25T15:31:26;4.07;;;2.40;;
17991;SDS011;9121;50.926;5.340;2022-08-25T15:33:53;8.70;;;2.70;;
17991;SDS011;9121;50.926;5.340;2022-08-25T15:36:21;14.60;;;2.88;;
17991;SDS011;9121;50.926;5.340;2022-08-25T15:38:50;13.35;;;3.33;;
17991;SDS011;9121;50.926;5.340;2022-08-25T15:41:17;7.30;;;2.97;;
17991;SDS011;9121;50.926;5.340;2022-08-25T15:43:47;6.70;;;2.67;;
17991;SDS011;9121;50.926;5.340;2022-08-25T15:46:15;7.95;;;2.95;;
17991;SDS011;9121;50.926;5.340;2022-08-25T15:48:44;10.50;;;2.45;;